Time;durP1;ratioP1;P1;durP2;ratioP2;P2;SDS_P1;SDS_P2;PMS_P1;PMS_P2;Temp;Humidity;BMP_temperature;BMP_pressure;BME280_temperature;BME280_humidity;BME280_pressure;Samples;Min_cycle;Max_cycle;Signal;HPM_P1;HPM_P2
2022/12/24 00:02:49;;;;;;;7.85;2.47;;;;;;;11.35;80.50;99429.41;10374952;28;20312;-70
2022/12/24 00:07:51;;;;;;;8.38;2.22;;;;;;;11.30;81.52;99436.03;10368607;28;20126;-71
2022/12/24 00:12:52;;;;;;;8.90;2.30;;;;;;;11.28;81.50;99432.66;10364906;28;20057;-70
2022/12/24 00:17:54;;;;;;;7.95;2.40;;;;;;;11.35;82.73;99438.25;10368582;28;20138;-70
2022/12/24 00:22:55;;;;;;;12.55;3.65;;;;;;;11.43;80.96;99445.50;10351022;28;20057;-69
2022/12/24 00:27:56;;;;;;;8.48;2.55;;;;;;;11.38;81.53;99437.09;10356681;28;20055;-70
2022/12/24 00:32:58;;;;;;;3.95;1.55;;;;;;;11.45;81.26;99449.69;10369418;28;20056;-71
2022/12/24 00:37:59;;;;;;;8.60;2.03;;;;;;;11.44;79.41;99458.69;10364952;28;20061;-70
2022/12/24 00:43:01;;;;;;;7.63;1.73;;;;;;;11.41;75.76;99458.13;10372046;28;20397;-70
2022/12/24 00:48:02;;;;;;;5.53;1.90;;;;;;;11.40;73.65;99472.44;10355808;28;20058;-72
2022/12/24 00:53:04;;;;;;;5.90;1.90;;;;;;;11.38;73.45;99469.06;10370937;28;20045;-70
2022/12/24 00:58:05;;;;;;;6.10;1.92;;;;;;;11.31;75.02;99476.84;10364473;28;20535;-70
2022/12/24 01:03:07;;;;;;;6.07;1.95;;;;;;;11.28;75.08;99479.78;10366683;28;20110;-71
2022/12/24 01:08:08;;;;;;;8.18;2.67;;;;;;;11.19;76.65;99478.00;10353014;28;20049;-70
2022/12/24 01:13:10;;;;;;;4.80;1.73;;;;;;;11.23;77.93;99498.88;10351617;28;20050;-71
2022/12/24 01:18:11;;;;;;;5.85;1.98;;;;;;;11.20;78.35;99493.84;10360368;28;20053;-70
2022/12/24 01:23:12;;;;;;;8.98;2.40;;;;;;;11.16;79.14;99508.44;10364563;28;20049;-69
2022/12/24 01:28:14;;;;;;;5.57;1.65;;;;;;;11.23;79.05;99533.50;10364978;28;20075;-72
2022/12/24 01:33:15;;;;;;;6.82;2.50;;;;;;;11.23;79.30;99552.16;10350394;28;20075;-70
2022/12/24 01:38:16;;;;;;;9.13;1.90;;;;;;;11.18;76.98;99543.75;10372002;28;20088;-70
2022/12/24 01:43:23;;;;;;;8.77;2.08;;;;;;;11.06;77.22;99539.59;10366811;28;20447;-70
2022/12/24 01:48:36;;;;;;;7.15;2.22;;;;;;;11.07;77.38;99557.25;10367348;28;20148;-69
2022/12/24 01:53:38;;;;;;;9.00;2.30;;;;;;;11.02;76.55;99559.50;10360801;28;20061;-70
2022/12/24 01:58:45;;;;;;;11.55;2.20;;;;;;;11.00;77.20;99566.78;10354927;28;20056;-69
2022/12/24 02:03:46;;;;;;;11.18;2.05;;;;;;;10.94;76.76;99568.19;10367457;28;20226;-70
2022/12/24 02:08:48;;;;;;;7.03;1.85;;;;;;;10.99;76.50;99581.94;10372041;28;20547;-71
2022/12/24 02:13:53;;;;;;;7.82;2.08;;;;;;;11.01;75.94;99587.13;10379820;28;20288;-73
2022/12/24 02:19:07;;;;;;;9.57;1.90;;;;;;;10.86;76.61;99602.69;10398912;28;20598;-71
2022/12/24 02:24:20;;;;;;;8.45;2.25;;;;;;;10.80;77.02;99604.09;10370664;28;20038;-72
2022/12/24 02:29:50;;;;;;;8.65;2.58;;;;;;;10.74;77.42;99608.16;10352709;28;20041;-72
2022/12/24 02:34:59;;;;;;;8.35;2.03;;;;;;;10.65;77.85;99601.00;10370541;28;20041;-70
2022/12/24 02:40:12;;;;;;;9.25;2.38;;;;;;;10.63;78.46;99607.44;10355474;28;20142;-72
2022/12/24 02:45:21;;;;;;;13.07;3.45;;;;;;;10.61;78.88;99605.78;10344854;28;20041;-72
2022/12/24 02:50:23;;;;;;;10.25;2.80;;;;;;;10.65;78.63;99606.34;10362065;28;20123;-70
2022/12/24 02:56:08;;;;;;;12.65;3.28;;;;;;;10.69;78.66;99617.53;10366059;28;20532;-72
2022/12/24 03:01:20;;;;;;;8.13;2.75;;;;;;;10.64;78.91;99614.47;10356405;28;21690;-71
2022/12/24 03:06:26;;;;;;;9.13;2.45;;;;;;;10.52;79.17;99627.88;10362567;28;20143;-70
2022/12/24 03:11:28;;;;;;;8.65;2.35;;;;;;;10.52;79.09;99640.34;10367623;28;20559;-70
2022/12/24 03:16:29;;;;;;;7.22;2.30;;;;;;;10.57;79.04;99654.94;10358477;28;20077;-71
2022/12/24 03:21:34;;;;;;;6.68;2.10;;;;;;;10.64;79.33;99654.38;10361520;28;20420;-72
2022/12/24 03:26:37;;;;;;;;;;;;;;;10.64;79.27;99649.06;10366063;28;20041;-72
2022/12/24 03:31:51;;;;;;;8.10;2.42;;;;;;;10.60;79.20;99651.16;10371837;28;19948;-72
2022/12/24 03:36:53;;;;;;;8.68;2.53;;;;;;;10.52;79.00;99659.81;10379329;28;20061;-71
2022/12/24 03:41:54;;;;;;;8.55;2.03;;;;;;;10.55;79.26;99659.56;10377886;28;20540;-71
2022/12/24 03:46:56;;;;;;;6.00;2.03;;;;;;;10.53;79.50;99677.47;10373093;28;20469;-72
2022/12/24 03:51:57;;;;;;;10.57;2.38;;;;;;;10.57;79.30;99672.75;10386712;28;20131;-72
2022/12/24 03:56:58;;;;;;;8.25;2.58;;;;;;;10.54;79.60;99684.50;10360505;28;20280;-72
2022/12/24 04:02:00;;;;;;;7.32;1.75;;;;;;;10.56;79.56;99687.84;10375161;28;20119;-71
2022/12/24 04:07:03;;;;;;;5.88;1.58;;;;;;;10.59;79.69;99694.72;10376905;28;20108;-70
2022/12/24 04:12:06;;;;;;;6.80;1.63;;;;;;;10.63;79.46;99703.25;10374280;28;20150;-71
2022/12/24 04:17:07;;;;;;;7.05;2.10;;;;;;;10.67;79.82;99712.66;10375010;28;20069;-73
2022/12/24 04:22:09;;;;;;;6.75;2.20;;;;;;;10.64;79.94;99718.25;10377122;28;20103;-72
2022/12/24 04:27:12;;;;;;;5.43;1.90;;;;;;;10.66;80.06;99724.28;10362215;28;20053;-71
2022/12/24 04:32:14;;;;;;;8.70;2.00;;;;;;;10.60;80.42;99720.38;10364509;28;20198;-71
2022/12/24 04:37:15;;;;;;;7.18;2.10;;;;;;;10.59;80.75;99722.16;10354627;28;20607;-72
2022/12/24 04:42:17;;;;;;;8.50;2.17;;;;;;;10.63;80.90;99720.09;10377346;28;20046;-72
2022/12/24 04:47:18;;;;;;;9.77;2.28;;;;;;;10.60;80.76;99723.03;10369202;28;20128;-71
2022/12/24 04:52:19;;;;;;;9.93;2.40;;;;;;;10.65;80.66;99717.28;10367391;28;20084;-73
2022/12/24 04:57:21;;;;;;;9.60;2.72;;;;;;;10.65;80.89;99722.63;10370733;28;20059;-71
2022/12/24 05:02:22;;;;;;;8.05;2.28;;;;;;;10.71;80.88;99732.72;10354489;28;20111;-70
2022/12/24 05:07:24;;;;;;;7.65;1.65;;;;;;;10.68;80.77;99722.34;10372229;28;20049;-71
2022/12/24 05:12:25;;;;;;;9.32;3.00;;;;;;;10.61;80.96;99712.25;10354491;28;20042;-70
2022/12/24 05:17:26;;;;;;;6.55;2.28;;;;;;;10.59;80.99;99721.34;10373652;28;20407;-71
2022/12/24 05:27:48;;;;;;;9.75;2.45;;;;;;;10.56;81.78;99719.78;10364284;28;20132;-70
2022/12/24 05:32:51;;;;;;;13.87;2.97;;;;;;;10.42;82.33;99734.31;10364589;28;20144;-70
2022/12/24 05:37:57;;;;;;;7.65;2.22;;;;;;;10.39;82.66;99729.25;10355523;28;20177;-71
2022/12/24 05:42:58;;;;;;;12.45;2.70;;;;;;;10.32;83.32;99716.59;10361617;28;20207;-70
2022/12/24 05:47:59;;;;;;;9.13;2.90;;;;;;;10.29;83.98;99736.34;10365658;28;20573;-68
2022/12/24 05:53:01;;;;;;;9.23;2.90;;;;;;;10.29;84.67;99728.34;10356543;28;20532;-69
2022/12/24 05:58:03;;;;;;;5.90;2.15;;;;;;;10.32;84.94;99743.22;10367527;28;20614;-69
2022/12/24 06:03:04;;;;;;;8.23;2.25;;;;;;;10.33;85.26;99742.22;10354939;28;20049;-71
2022/12/24 06:08:06;;;;;;;7.43;2.22;;;;;;;10.36;85.11;99748.16;10363914;28;20079;-71
2022/12/24 06:13:07;;;;;;;9.15;1.65;;;;;;;10.39;85.41;99763.03;10349412;28;20420;-69
2022/12/24 06:18:08;;;;;;;11.63;2.63;;;;;;;10.43;85.74;99775.06;10355124;28;20201;-70
2022/12/24 06:23:10;;;;;;;7.82;1.98;;;;;;;10.46;85.91;99766.81;10354741;28;20618;-70
2022/12/24 06:28:11;;;;;;;6.85;1.67;;;;;;;10.49;85.72;99776.34;10365916;28;20348;-70
2022/12/24 06:33:13;;;;;;;6.45;2.15;;;;;;;10.45;86.34;99775.78;10351495;28;20064;-71
2022/12/24 06:38:14;;;;;;;9.45;2.30;;;;;;;10.48;86.78;99770.19;10364362;28;20205;-70
2022/12/24 06:43:16;;;;;;;9.35;2.53;;;;;;;10.55;86.77;99781.13;10356299;28;20049;-70
2022/12/24 06:48:17;;;;;;;11.40;2.95;;;;;;;10.61;86.02;99785.91;10362122;28;20465;-70
2022/12/24 06:53:19;;;;;;;7.85;2.30;;;;;;;10.58;85.79;99792.38;10361208;28;20110;-70
2022/12/24 06:58:20;;;;;;;8.25;2.40;;;;;;;10.56;86.53;99806.78;10350081;28;20404;-71
2022/12/24 07:03:21;;;;;;;8.68;3.22;;;;;;;10.56;86.86;99804.94;10356524;28;22814;-70
2022/12/24 07:08:23;;;;;;;10.90;3.83;;;;;;;10.53;86.95;99810.53;10336280;28;20073;-70
2022/12/24 07:13:25;;;;;;;8.45;2.30;;;;;;;10.63;87.29;99815.03;10347752;28;20513;-70
2022/12/24 07:18:27;;;;;;;11.45;3.22;;;;;;;10.62;86.67;99822.19;10356803;28;21962;-70
2022/12/24 07:23:30;;;;;;;13.55;3.28;;;;;;;10.61;86.75;99818.72;10368866;28;20049;-71
2022/12/24 07:28:32;;;;;;;14.00;3.47;;;;;;;10.66;86.25;99838.72;10359929;28;20139;-71
2022/12/24 07:33:33;;;;;;;10.52;3.75;;;;;;;10.67;86.12;99840.44;10345093;28;20060;-70
2022/12/24 07:38:36;;;;;;;11.25;3.53;;;;;;;10.72;85.72;99846.19;10345846;28;20217;-71
2022/12/24 07:43:37;;;;;;;15.98;3.40;;;;;;;10.65;86.27;99856.53;10334982;28;20384;-67
2022/12/24 07:48:39;;;;;;;11.00;3.55;;;;;;;10.66;86.55;99868.88;10323076;28;20369;-66
2022/12/24 07:53:46;;;;;;;9.70;3.35;;;;;;;10.66;87.36;99868.00;10327998;28;20053;-67
2022/12/24 07:58:50;;;;;;;10.73;2.95;;;;;;;10.67;86.89;99875.88;10331456;28;20484;-66
2022/12/24 08:03:53;;;;;;;11.45;4.10;;;;;;;10.66;86.92;99889.31;10334059;28;20054;-66
2022/12/24 08:08:55;;;;;;;9.70;3.13;;;;;;;10.71;86.84;99889.78;10350881;28;20045;-67
2022/12/24 08:13:56;;;;;;;13.10;3.35;;;;;;;10.68;86.21;99895.34;10350437;28;20049;-68
2022/12/24 08:18:58;;;;;;;9.88;3.45;;;;;;;10.75;86.13;99916.00;10336043;28;20057;-67
2022/12/24 08:23:59;;;;;;;12.55;3.53;;;;;;;10.75;86.28;99900.00;10338920;28;20069;-69
2022/12/24 08:29:01;;;;;;;13.32;3.42;;;;;;;10.75;86.09;99904.50;10349898;28;20058;-68
2022/12/24 08:34:03;;;;;;;12.20;3.30;;;;;;;10.84;86.31;99908.16;10353566;28;20045;-68
2022/12/24 08:39:07;;;;;;;13.82;4.57;;;;;;;10.86;85.41;99916.88;10351054;28;22706;-70
2022/12/24 08:44:10;;;;;;;10.93;3.88;;;;;;;10.78;85.97;99925.53;10349799;28;20109;-69
2022/12/24 08:49:11;;;;;;;15.15;4.20;;;;;;;10.77;86.35;99935.31;10350636;28;20163;-70
2022/12/24 08:54:13;;;;;;;11.50;4.00;;;;;;;10.69;89.57;99952.94;10334401;28;21842;-68
2022/12/24 08:59:14;;;;;;;12.52;4.30;;;;;;;10.65;92.42;99962.16;10353722;28;20498;-68
2022/12/24 09:04:15;;;;;;;14.85;4.10;;;;;;;10.59;94.82;99953.72;10351212;28;20053;-68
2022/12/24 09:09:17;;;;;;;11.55;3.88;;;;;;;10.44;97.60;99961.19;10346080;28;20067;-68
2022/12/24 09:14:18;;;;;;;12.05;4.30;;;;;;;10.49;97.35;99958.13;10334656;28;20084;-69
2022/12/24 09:19:19;;;;;;;14.40;4.43;;;;;;;10.59;98.26;99980.34;10352700;28;20054;-69
2022/12/24 09:24:21;;;;;;;16.85;3.95;;;;;;;10.77;97.10;99982.41;10351530;28;20519;-68
2022/12/24 09:29:22;;;;;;;15.10;4.22;;;;;;;10.70;96.42;99981.25;10345480;28;20053;-68
2022/12/24 09:34:24;;;;;;;19.27;5.85;;;;;;;10.74;96.22;99977.34;10342949;28;20054;-68
2022/12/24 09:39:31;;;;;;;17.52;4.07;;;;;;;10.69;96.83;99984.88;10338726;28;20053;-72
2022/12/24 09:45:07;;;;;;;14.02;5.32;;;;;;;10.56;98.75;99996.56;10345445;28;20060;-68
2022/12/24 09:50:20;;;;;;;13.95;4.47;;;;;;;10.64;99.36;99997.75;10305218;28;20548;-70
2022/12/24 09:55:44;;;;;;;17.95;4.95;;;;;;;11.03;97.40;100006.78;10348717;28;20470;-70
2022/12/24 10:00:46;;;;;;;21.23;4.95;;;;;;;11.44;94.92;100002.34;10346183;28;20053;-69
2022/12/24 10:05:59;;;;;;;12.93;4.88;;;;;;;11.52;94.08;100014.16;10343388;28;20041;-72
2022/12/24 10:11:10;;;;;;;15.65;5.25;;;;;;;11.65;92.23;100010.25;10347202;28;20122;-70
2022/12/24 10:16:31;;;;;;;15.45;4.80;;;;;;;11.72;91.74;100020.38;10346551;28;20055;-69
2022/12/24 10:21:54;;;;;;;13.05;4.40;;;;;;;11.70;91.12;100033.00;10330480;28;20861;-67
2022/12/24 10:27:09;;;;;;;19.60;5.47;;;;;;;11.45;91.81;100035.16;10349918;28;20053;-68
2022/12/24 10:32:21;;;;;;;15.45;4.88;;;;;;;11.61;90.74;100030.16;10346933;28;20069;-71
2022/12/24 10:37:24;;;;;;;13.95;4.78;;;;;;;11.89;89.04;100038.38;10341746;28;20037;-71
2022/12/24 10:42:37;;;;;;;15.30;4.45;;;;;;;11.89;87.07;100032.19;10344291;28;20130;-68
2022/12/24 10:47:47;;;;;;;14.63;4.93;;;;;;;11.61;88.69;100037.34;10338834;28;20139;-70
2022/12/24 10:52:52;;;;;;;14.57;4.63;;;;;;;11.55;89.10;100037.88;10326774;28;20182;-69
2022/12/24 10:58:13;;;;;;;14.48;5.15;;;;;;;11.48;89.80;100040.22;10347114;28;20195;-68
2022/12/24 11:03:18;;;;;;;16.38;3.85;;;;;;;11.52;89.80;100036.31;10326646;28;20068;-69
2022/12/24 11:08:19;;;;;;;;;;;;;;;11.67;89.01;100050.13;10345742;28;20053;-68
2022/12/24 11:13:25;;;;;;;11.18;4.90;;;;;;;11.69;88.44;100042.81;10348805;28;19964;-69
2022/12/24 11:18:45;;;;;;;15.63;5.07;;;;;;;11.84;87.14;100045.94;10344162;28;20069;-71
2022/12/24 11:23:57;;;;;;;16.63;4.85;;;;;;;11.76;88.13;100043.13;10345353;28;20135;-71
2022/12/24 11:29:22;;;;;;;12.85;3.55;;;;;;;11.57;87.80;100039.41;10322999;28;20050;-69
2022/12/24 11:34:30;;;;;;;;;;;;;;;11.82;87.48;100039.91;10330678;28;20689;-70
2022/12/24 11:39:39;;;;;;;11.00;3.75;;;;;;;12.06;87.56;100036.06;10339299;28;20095;-71
2022/12/24 11:44:48;;;;;;;11.25;4.00;;;;;;;12.75;84.74;100029.72;10329370;28;20049;-69
2022/12/24 11:49:49;;;;;;;12.27;3.55;;;;;;;13.23;80.43;100026.06;10343792;28;20163;-70
2022/12/24 11:55:03;;;;;;;11.85;3.90;;;;;;;13.23;79.22;100038.59;10333136;28;20682;-71
2022/12/24 12:00:12;;;;;;;16.85;3.78;;;;;;;13.01;80.20;100029.94;10353518;28;20587;-71
2022/12/24 12:05:19;;;;;;;11.27;3.88;;;;;;;12.78;80.78;100025.94;10351718;28;20051;-68
2022/12/24 12:10:28;;;;;;;17.27;3.90;;;;;;;12.72;81.35;100022.00;10354555;28;20546;-69
2022/12/24 12:15:37;;;;;;;9.32;3.15;;;;;;;12.75;82.54;100018.22;10354538;28;20207;-69
2022/12/24 12:20:49;;;;;;;11.73;3.75;;;;;;;14.13;75.73;100018.28;10332006;28;20061;-70
2022/12/24 12:25:57;;;;;;;10.55;3.70;;;;;;;16.43;66.78;100015.16;10348850;28;20061;-72
2022/12/24 12:31:14;;;;;;;10.60;4.30;;;;;;;20.53;51.38;100027.53;10353827;28;20115;-73
2022/12/24 12:36:22;;;;;;;9.57;3.63;;;;;;;21.37;46.98;100024.81;10348084;28;20129;-72
2022/12/24 12:41:26;;;;;;;12.93;3.90;;;;;;;18.20;55.15;100029.44;10337154;28;20428;-69
2022/12/24 12:46:53;;;;;;;9.05;3.30;;;;;;;16.11;62.35;100038.28;10353112;28;20064;-72
2022/12/24 12:52:15;;;;;;;10.32;3.05;;;;;;;19.58;52.93;100027.50;10331773;28;20052;-73
2022/12/24 12:57:23;;;;;;;7.38;2.35;;;;;;;19.67;49.72;100028.25;10338403;28;20475;-70
2022/12/24 13:02:55;;;;;;;8.05;3.60;;;;;;;22.03;45.29;100018.03;10349338;28;20056;-68
2022/12/24 13:07:56;;;;;;;6.97;2.47;;;;;;;24.45;38.60;100015.69;10359519;28;20045;-72
2022/12/24 13:13:26;;;;;;;5.80;2.42;;;;;;;20.54;45.71;100027.31;10363647;28;20135;-73
2022/12/24 13:19:12;;;;;;;11.10;3.65;;;;;;;18.24;52.42;100036.16;10338256;28;20115;-71
2022/12/24 13:24:26;;;;;;;10.02;4.28;;;;;;;16.25;59.53;100048.38;10367766;28;20053;-73
2022/12/24 13:29:35;;;;;;;10.88;3.53;;;;;;;14.70;66.03;100054.66;10360248;28;20069;-72
2022/12/24 13:34:37;;;;;;;11.25;3.60;;;;;;;18.32;54.99;100052.25;10355072;28;20183;-70
2022/12/24 13:40:09;;;;;;;9.85;3.50;;;;;;;19.16;51.28;100059.50;10359518;28;20049;-71
2022/12/24 13:45:44;;;;;;;12.60;3.55;;;;;;;16.57;58.49;100062.84;10335273;28;20404;-71
2022/12/24 13:50:52;;;;;;;12.38;4.53;;;;;;;15.02;65.08;100058.56;10284122;28;20056;-72
2022/12/24 13:55:56;;;;;;;12.68;3.85;;;;;;;14.54;67.68;100062.50;10346724;28;20053;-70
2022/12/24 14:01:34;;;;;;;8.05;3.17;;;;;;;13.80;70.71;100078.66;10348296;28;20148;-72
2022/12/24 14:06:40;;;;;;;13.00;3.63;;;;;;;13.36;72.71;100070.38;10323674;28;20046;-71
2022/12/24 14:11:57;;;;;;;13.07;3.72;;;;;;;13.16;74.33;100070.41;10330573;28;20047;-70
2022/12/24 14:17:02;;;;;;;13.30;3.90;;;;;;;13.12;74.96;100076.19;10345745;28;20862;-70
2022/12/24 14:22:19;;;;;;;11.27;3.90;;;;;;;13.09;75.63;100074.66;10346050;28;20124;-71
2022/12/24 14:27:31;;;;;;;11.57;4.28;;;;;;;12.93;76.37;100077.09;10344785;28;20193;-73
2022/12/24 14:32:38;;;;;;;13.75;4.72;;;;;;;12.75;77.24;100076.97;10328468;28;20037;-71
2022/12/24 14:37:44;;;;;;;14.45;5.38;;;;;;;12.50;78.63;100092.56;10348554;28;20093;-71
2022/12/24 14:43:13;;;;;;;11.55;3.95;;;;;;;12.36;80.30;100094.66;10348232;28;20192;-70
2022/12/24 14:48:26;;;;;;;13.75;4.88;;;;;;;12.36;80.59;100083.97;10344312;28;20123;-69
2022/12/24 14:54:04;;;;;;;11.57;4.45;;;;;;;12.30;81.34;100092.53;10342626;28;20073;-70
2022/12/24 14:59:17;;;;;;;17.98;5.15;;;;;;;12.14;82.43;100095.72;10275293;28;20069;-70
2022/12/24 15:04:18;;;;;;;18.52;5.90;;;;;;;12.09;82.83;100099.81;10345150;28;20063;-71
2022/12/24 15:09:26;;;;;;;11.35;4.50;;;;;;;12.00;83.85;100120.97;10345841;28;20124;-68
2022/12/24 15:14:30;;;;;;;15.70;5.90;;;;;;;11.87;84.65;100120.34;10336074;28;20374;-69
2022/12/24 15:19:43;;;;;;;13.50;4.93;;;;;;;11.71;86.00;100120.00;10332477;28;20583;-69
2022/12/24 15:24:46;;;;;;;14.82;6.30;;;;;;;11.61;87.11;100115.47;10345784;28;20071;-70
2022/12/24 15:29:51;;;;;;;15.38;6.13;;;;;;;11.62;87.15;100133.16;10351763;28;20108;-70
2022/12/24 15:34:54;;;;;;;16.17;4.75;;;;;;;11.48;87.23;100157.50;10371193;28;20067;-70
2022/12/24 15:39:58;;;;;;;14.32;4.47;;;;;;;11.45;87.53;100155.97;10379206;28;20093;-69
2022/12/24 15:45:03;;;;;;;16.63;5.03;;;;;;;11.46;87.10;100151.47;10343748;28;20060;-68
2022/12/24 15:50:15;;;;;;;12.68;4.55;;;;;;;11.31;87.18;100146.47;10346458;28;20045;-69
2022/12/24 15:55:42;;;;;;;13.73;5.35;;;;;;;11.38;87.36;100159.25;10340631;28;20496;-68
2022/12/24 16:01:20;;;;;;;11.35;5.85;;;;;;;11.41;87.35;100164.31;10346307;28;20053;-68
2022/12/24 16:06:23;;;;;;;13.77;6.50;;;;;;;11.31;87.76;100154.47;10343494;28;20403;-69
2022/12/24 16:11:35;;;;;;;14.63;5.15;;;;;;;11.27;88.04;100155.72;10348164;28;20849;-68
2022/12/24 16:16:40;;;;;;;14.75;4.80;;;;;;;11.20;88.67;100170.53;10343418;28;20064;-68
2022/12/24 16:21:42;;;;;;;11.95;4.57;;;;;;;11.07;89.42;100154.72;10357726;28;20072;-70
2022/12/24 16:26:43;;;;;;;12.00;4.07;;;;;;;11.13;89.55;100159.53;10348274;28;20757;-70
2022/12/24 16:31:50;;;;;;;11.43;4.07;;;;;;;11.09;89.90;100160.78;10337501;28;20654;-69
2022/12/24 16:36:52;;;;;;;14.52;4.50;;;;;;;11.08;90.16;100169.72;10337475;28;20145;-68
2022/12/24 16:47:19;;;;;;;14.27;5.60;;;;;;;10.89;91.83;100167.75;10352879;28;20467;-70
2022/12/24 16:52:25;;;;;;;10.82;4.55;;;;;;;10.79;92.08;100167.69;10350580;28;20597;-69
2022/12/24 16:57:26;;;;;;;17.15;6.18;;;;;;;10.73;92.76;100173.53;10348774;28;20140;-70
2022/12/24 17:02:28;;;;;;;14.27;5.50;;;;;;;10.71;92.94;100179.94;10333675;28;20044;-69
2022/12/24 17:07:29;;;;;;;9.63;3.65;;;;;;;10.69;92.61;100165.88;10353321;28;20057;-70
2022/12/24 17:12:30;;;;;;;13.02;4.97;;;;;;;10.77;92.38;100176.78;10354979;28;20068;-70
2022/12/24 17:17:34;;;;;;;12.15;6.07;;;;;;;10.85;91.85;100176.97;10354462;28;20057;-68
2022/12/24 17:22:37;;;;;;;11.65;6.15;;;;;;;10.93;91.80;100179.03;10352392;28;20050;-69
2022/12/24 17:27:39;;;;;;;10.95;4.00;;;;;;;10.93;91.13;100187.84;10414216;23;20041;-65
2022/12/24 17:32:40;;;;;;;12.68;5.20;;;;;;;10.95;90.79;100183.22;10342249;28;20057;-64
2022/12/24 17:37:42;;;;;;;10.65;5.22;;;;;;;10.82;91.24;100187.03;10330343;28;20060;-65
2022/12/24 17:42:43;;;;;;;10.23;4.88;;;;;;;10.67;91.10;100173.16;10302755;28;20105;-66
2022/12/24 17:47:45;;;;;;;11.13;5.32;;;;;;;10.93;91.02;100217.13;10314781;28;20058;-64
2022/12/24 17:52:46;;;;;;;10.32;4.85;;;;;;;10.86;90.50;100210.63;10308230;28;20306;-65
2022/12/24 17:57:48;;;;;;;8.95;4.40;;;;;;;10.83;90.44;100210.88;10313756;28;20135;-67
2022/12/24 18:02:49;;;;;;;7.97;4.03;;;;;;;10.80;91.34;100213.78;10310944;28;20055;-64
2022/12/24 18:07:51;;;;;;;8.27;4.90;;;;;;;10.74;91.14;100206.31;10312032;28;20456;-64
2022/12/24 18:12:53;;;;;;;8.52;4.32;;;;;;;10.85;91.49;100211.59;10316382;28;20145;-66
2022/12/24 18:17:55;;;;;;;13.10;5.30;;;;;;;10.86;91.05;100199.97;10315381;28;20589;-63
2022/12/24 18:22:56;;;;;;;11.07;5.05;;;;;;;10.85;90.82;100194.78;10310376;28;20064;-63
2022/12/24 18:27:58;;;;;;;13.07;5.30;;;;;;;10.83;90.76;100186.91;10304434;28;20209;-63
2022/12/24 18:33:00;;;;;;;13.23;6.95;;;;;;;10.79;90.91;100190.78;10303715;28;20064;-66
2022/12/24 18:38:01;;;;;;;10.77;7.35;;;;;;;10.71;91.30;100195.91;10320489;28;20126;-67
2022/12/24 18:43:03;;;;;;;14.73;8.15;;;;;;;10.71;91.40;100202.06;10318011;28;20056;-66
2022/12/24 18:48:05;;;;;;;14.88;8.45;;;;;;;10.65;91.25;100194.59;10313636;28;20169;-64
2022/12/24 18:53:06;;;;;;;19.42;16.33;;;;;;;10.73;91.49;100199.28;10313686;28;21700;-65
2022/12/24 18:58:08;;;;;;;21.20;14.90;;;;;;;10.73;91.28;100217.91;10296844;28;20515;-67
2022/12/24 19:03:09;;;;;;;30.10;17.48;;;;;;;10.80;91.72;100237.75;10308510;28;20054;-64
2022/12/24 19:08:10;;;;;;;14.70;8.32;;;;;;;10.75;91.65;100224.81;10300567;28;20720;-67
2022/12/24 19:13:32;;;;;;;15.20;6.93;;;;;;;10.78;93.39;100242.38;10319463;28;20054;-65
2022/12/24 19:18:34;;;;;;;13.43;6.72;;;;;;;10.73;93.10;100228.56;10318909;28;20112;-68
2022/12/24 19:23:35;;;;;;;13.48;5.93;;;;;;;10.76;92.88;100249.63;10318221;28;20045;-68
2022/12/24 19:28:37;;;;;;;11.95;6.15;;;;;;;10.80;92.82;100267.03;10297938;28;20054;-65
2022/12/24 19:33:40;;;;;;;11.30;6.38;;;;;;;10.86;92.60;100279.03;10311573;28;20105;-64
2022/12/24 19:38:44;;;;;;;10.57;6.22;;;;;;;10.86;92.53;100273.69;10311035;28;20236;-64
2022/12/24 19:43:48;;;;;;;12.90;6.95;;;;;;;10.88;93.48;100266.41;10294483;28;20133;-64
2022/12/24 19:48:55;;;;;;;16.70;7.55;;;;;;;10.85;92.85;100272.81;10305396;28;20093;-63
2022/12/24 19:53:57;;;;;;;13.77;7.07;;;;;;;10.76;93.08;100257.59;10312133;28;20607;-64
2022/12/24 19:59:00;;;;;;;14.25;7.82;;;;;;;10.82;93.49;100270.41;10317372;28;20064;-62
2022/12/24 20:04:02;;;;;;;13.02;6.88;;;;;;;10.78;94.33;100261.84;10320476;28;20053;-65
2022/12/24 20:09:06;;;;;;;16.95;7.55;;;;;;;10.70;94.93;100268.75;10318601;28;21414;-66
2022/12/24 20:14:10;;;;;;;14.35;6.68;;;;;;;10.75;94.71;100270.09;10320858;28;20417;-66
2022/12/24 20:19:13;;;;;;;12.52;6.55;;;;;;;10.74;94.55;100262.22;10314629;28;20109;-67
2022/12/24 20:24:15;;;;;;;14.18;6.78;;;;;;;10.63;95.46;100272.88;10297908;28;20156;-66
2022/12/24 20:29:16;;;;;;;14.88;6.85;;;;;;;10.61;95.96;100281.84;10318226;28;20148;-67
2022/12/24 20:34:18;;;;;;;12.07;6.78;;;;;;;10.61;95.91;100275.66;10309974;28;20120;-66
2022/12/24 20:39:19;;;;;;;13.35;6.28;;;;;;;10.49;96.98;100266.84;10317812;28;20050;-67
2022/12/24 20:44:20;;;;;;;12.98;5.80;;;;;;;10.47;97.48;100276.78;10303391;28;20566;-65
2022/12/24 20:49:22;;;;;;;11.30;6.28;;;;;;;10.53;97.21;100278.09;10303371;28;21554;-65
2022/12/24 20:54:23;;;;;;;11.38;6.63;;;;;;;10.53;97.16;100280.78;10302998;28;20398;-65
2022/12/24 20:59:25;;;;;;;15.25;6.93;;;;;;;10.54;97.36;100283.31;10316168;28;20053;-66
2022/12/24 21:04:26;;;;;;;16.23;7.18;;;;;;;10.59;97.43;100281.09;10323097;28;20084;-65
2022/12/24 21:09:28;;;;;;;16.50;7.30;;;;;;;10.65;96.99;100282.44;10314963;28;21300;-64
2022/12/24 21:14:29;;;;;;;14.45;7.53;;;;;;;10.63;96.66;100281.72;10308059;28;20062;-62
2022/12/24 21:19:31;;;;;;;14.75;7.15;;;;;;;10.81;96.35;100292.72;10317166;28;20121;-66
2022/12/24 21:24:32;;;;;;;12.82;7.40;;;;;;;10.78;95.88;100282.31;10300871;28;20525;-63
2022/12/24 21:29:33;;;;;;;14.90;6.90;;;;;;;10.79;95.78;100268.88;10299620;28;20049;-67
2022/12/24 21:34:35;;;;;;;11.52;6.55;;;;;;;10.90;95.49;100273.31;10299787;28;20200;-66
2022/12/24 21:39:36;;;;;;;13.23;6.18;;;;;;;10.85;95.12;100272.00;10312391;28;20133;-66
2022/12/24 21:44:38;;;;;;;12.00;7.28;;;;;;;10.82;94.96;100266.91;10312795;28;20497;-64
2022/12/24 21:54:59;;;;;;;16.65;6.45;;;;;;;10.88;94.84;100247.78;10308588;28;20141;-63
2022/12/24 22:05:22;;;;;;;13.15;6.72;;;;;;;10.77;95.32;100251.31;10316035;28;20057;-64
2022/12/24 22:15:47;;;;;;;15.95;8.98;;;;;;;10.71;95.95;100250.00;10309663;28;20614;-65
2022/12/24 22:20:50;;;;;;;14.63;8.10;;;;;;;10.70;95.53;100271.41;10291616;28;20067;-66
2022/12/24 22:25:51;;;;;;;13.50;7.75;;;;;;;10.72;95.36;100278.31;10310582;28;20414;-66
2022/12/24 22:30:53;;;;;;;18.80;10.75;;;;;;;10.74;95.36;100296.84;10293930;28;20057;-67
2022/12/24 22:35:55;;;;;;;18.88;8.23;;;;;;;10.74;94.97;100291.50;10291614;28;20046;-66
2022/12/24 22:40:56;;;;;;;16.63;7.32;;;;;;;10.73;94.97;100289.81;10310925;28;20053;-64
2022/12/24 22:45:57;;;;;;;17.38;8.48;;;;;;;10.73;95.61;100276.50;10311527;28;20101;-66
2022/12/24 22:50:59;;;;;;;16.40;7.90;;;;;;;10.82;94.35;100283.72;10307771;28;21101;-64
2022/12/24 22:56:01;;;;;;;14.38;7.63;;;;;;;10.75;94.67;100282.56;10307946;28;20048;-63
2022/12/24 23:01:03;;;;;;;12.65;7.68;;;;;;;10.87;94.56;100286.03;10294771;28;20097;-65
2022/12/24 23:06:06;;;;;;;23.00;10.55;;;;;;;10.82;93.95;100281.06;10311891;28;20050;-65
2022/12/24 23:11:10;;;;;;;17.75;8.05;;;;;;;10.77;94.50;100281.44;10309348;28;20254;-66
2022/12/24 23:16:12;;;;;;;18.17;7.60;;;;;;;10.83;94.48;100285.44;10300905;28;21046;-63
2022/12/24 23:21:13;;;;;;;18.13;7.75;;;;;;;10.83;94.21;100280.09;10326416;28;20161;-66
2022/12/24 23:26:18;;;;;;;15.68;8.48;;;;;;;10.87;94.38;100278.91;10309608;28;20042;-65
2022/12/24 23:31:20;;;;;;;18.10;8.93;;;;;;;10.81;94.38;100274.06;10317288;28;20118;-64
2022/12/24 23:36:22;;;;;;;16.90;8.88;;;;;;;10.78;94.53;100259.19;10315450;28;20060;-66
2022/12/24 23:41:24;;;;;;;15.75;8.60;;;;;;;10.77;94.58;100264.63;10315129;28;20074;-65
2022/12/24 23:46:25;;;;;;;15.18;9.70;;;;;;;10.58;94.58;100247.50;10314427;28;20058;-64
2022/12/24 23:51:27;;;;;;;15.45;9.07;;;;;;;10.68;94.59;100263.56;10316996;28;20060;-67